Toyomasa Maru — JJ3927 — position and weather

sailwx.info

Track history (hours):
 
Tides and Currents Weather Stations Pressure Air Temp Water Temp Dewpoint Dewpoint Depression Visibility Wind Speed Wind Dir Waves Ship Positions

Toyomasa Maru

Last reported at 2016-Jun-26 08:28 UTC. Time now 2016-Jun-27 06:03 UTC.
Position N 34°55' E 139°27'.

Length 101 m; draft 4.4 m.

Type: Tanker. MMSI: 431300401.

Date/timePositionNaut miles runAvg speedWind from/ knotsBaromVisibWave heightAir tempDewpointWater temp
2016-Jun-26 08:28N 34°55' E 139°27'1212.1
2016-Jun-26 07:31N 35°03' E 139°37'1213.0
2016-Jun-26 06:33N 35°13' E 139°46'1212.0
2016-Jun-26 05:34N 35°25' E 139°43'1413.9
2016-Jun-26 04:33N 35°33' E 139°57'7 6.0
2016-Jun-26 03:25N 35°36' E 140°05'0 0.0
2016-Jun-26 02:31N 35°36' E 140°05'0 0.0
2016-Jun-26 01:31N 35°36' E 140°05'0 0.0
2016-Jun-26 00:25N 35°36' E 140°05'0 0.0
2016-Jun-25 23:31N 35°36' E 140°05'0 0.1
2016-Jun-25 22:33N 35°36' E 140°05'7 6.7
2016-Jun-25 21:34N 35°33' E 139°57'0 0.2
2016-Jun-25 20:34N 35°33' E 139°57'0 0.0
2016-Jun-25 19:33N 35°33' E 139°57'0 0.0
2016-Jun-25 18:33N 35°33' E 139°57'0 0.0
2016-Jun-25 17:34N 35°33' E 139°57'0 0.0
2016-Jun-25 16:33N 35°33' E 139°57'0 0.0
2016-Jun-25 15:33N 35°33' E 139°57'0 0.0
2016-Jun-25 14:33N 35°33' E 139°57'0 0.0
2016-Jun-25 13:33N 35°33' E 139°57'0 0.0
2016-Jun-25 12:33N 35°33' E 139°57'0 0.0
2016-Jun-25 11:33N 35°33' E 139°57'0 0.0
2016-Jun-25 10:33N 35°33' E 139°57'0 0.0
2016-Jun-25 09:33N 35°33' E 139°57'0 0.0
2016-Jun-25 08:33N 35°33' E 139°57'0 0.0
2016-Jun-25 07:31N 35°33' E 139°57'0 0.0
2016-Jun-25 06:33N 35°33' E 139°57'0 0.0
2016-Jun-25 05:32N 35°33' E 139°57'0 0.0
2016-Jun-25 04:32N 35°33' E 139°57'1 0.3
2016-Jun-25 02:33N 35°33' E 139°57'1212.4
2016-Jun-25 01:33N 35°24' E 139°46'1111.4
2016-Jun-25 00:33N 35°12' E 139°47'9 0.2
2016-Jun-23 08:29N 35°05' E 139°40'1212.8
2016-Jun-23 07:33N 35°16' E 139°46'16 8.0
2016-Jun-23 05:31N 35°32' E 139°48'0 0.0
2016-Jun-23 04:31N 35°32' E 139°48'0 0.0
2016-Jun-23 03:31N 35°32' E 139°48'0 0.0
2016-Jun-23 02:31N 35°32' E 139°48'0 0.0
2016-Jun-23 01:31N 35°32' E 139°48'1 0.9
2016-Jun-23 00:33N 35°31' E 139°48'2 1.7
2016-Jun-22 23:31N 35°30' E 139°50'3 3.3
2016-Jun-22 22:33N 35°27' E 139°50'1111.1
2016-Jun-22 21:33N 35°17' E 139°46'1211.8
2016-Jun-22 20:33N 35°05' E 139°44'66 2.1
2016-Jun-21 13:20N 34°32' E 138°35'6711.7
2016-Jun-21 07:33N 35°08' E 139°44'1211.7
2016-Jun-21 06:33N 35°20' E 139°42'2412.1
2016-Jun-21 04:33N 35°36' E 140°05'0 0.0
2016-Jun-21 03:34N 35°36' E 140°05'0 0.0
2016-Jun-21 02:16N 35°36' E 140°05'0 0.0
2016-Jun-21 01:34N 35°36' E 140°05'0 0.0
2016-Jun-21 00:34N 35°36' E 140°05'0 0.1
2016-Jun-20 23:33N 35°36' E 140°05'6 5.8
2016-Jun-20 22:33N 35°34' E 139°58'0 0.1
2016-Jun-20 21:33N 35°34' E 139°58'0 0.0
2016-Jun-20 20:33N 35°34' E 139°58'0 0.0
2016-Jun-20 19:33N 35°34' E 139°58'0 0.0
2016-Jun-20 18:33N 35°34' E 139°58'0 0.0
2016-Jun-20 17:33N 35°34' E 139°58'0 0.0
2016-Jun-20 16:33N 35°34' E 139°58'0 0.0
2016-Jun-20 15:33N 35°34' E 139°58'0 0.0
2016-Jun-20 14:33N 35°34' E 139°58'0 0.0
2016-Jun-20 13:33N 35°34' E 139°58'0 0.0
2016-Jun-20 12:33N 35°34' E 139°58'0 0.1
2016-Jun-20 11:33N 35°34' E 139°58'6 5.5
2016-Jun-20 10:31N 35°33' E 140°05'0 0.0
2016-Jun-20 09:31N 35°33' E 140°05'0 0.0
2016-Jun-20 08:25N 35°33' E 140°05'0 0.0
2016-Jun-20 07:31N 35°33' E 140°05'0 0.0
2016-Jun-20 06:25N 35°33' E 140°05'0 0.0
2016-Jun-20 05:31N 35°33' E 140°05'0 0.3
2016-Jun-20 04:33N 35°33' E 140°05'3 2.6
2016-Jun-20 03:31N 35°34' E 140°02'0 0.0
2016-Jun-20 02:28N 35°34' E 140°02'0 0.0
2016-Jun-20 01:31N 35°34' E 140°02'0 0.0
2016-Jun-20 00:31N 35°34' E 140°02'0 0.0
2016-Jun-19 23:31N 35°34' E 140°02'0 0.0
2016-Jun-19 22:28N 35°34' E 140°02'0 0.0
2016-Jun-19 21:25N 35°34' E 140°02'0 0.0
2016-Jun-19 20:28N 35°34' E 140°02'0 0.0
2016-Jun-19 19:31N 35°34' E 140°02'0 0.0
2016-Jun-19 18:31N 35°34' E 140°02'0 0.1
2016-Jun-19 17:31N 35°34' E 140°01'0 0.0
2016-Jun-19 16:31N 35°34' E 140°01'0 0.0
2016-Jun-19 15:31N 35°34' E 140°01'0 0.0
2016-Jun-19 14:31N 35°34' E 140°01'0 0.0
2016-Jun-19 13:31N 35°34' E 140°01'0 0.0
2016-Jun-19 12:31N 35°34' E 140°01'0 0.0
2016-Jun-19 11:31N 35°34' E 140°01'0 0.1
2016-Jun-19 10:33N 35°34' E 140°01'3 3.0
2016-Jun-19 09:23N 35°36' E 140°05'0 0.0
2016-Jun-19 08:23N 35°36' E 140°05'0 0.0
2016-Jun-19 07:29N 35°36' E 140°05'0 0.0
2016-Jun-19 06:29N 35°36' E 140°05'0 0.0
2016-Jun-19 05:29N 35°36' E 140°05'0 0.0
2016-Jun-19 04:29N 35°36' E 140°05'1 1.3
2016-Jun-19 03:33N 35°35' E 140°03'0 0.2
2016-Jun-19 02:21N 35°35' E 140°03'0 0.0
2016-Jun-19 01:15N 35°35' E 140°03'0 0.1
2016-Jun-19 00:30N 35°35' E 140°03'4 4.1
2016-Jun-18 23:33N 35°34' E 139°59'1312.7
2016-Jun-18 22:33N 35°25' E 139°47'1110.9
2016-Jun-18 21:33N 35°14' E 139°47'1212.5
2016-Jun-18 20:33N 35°02' E 139°42'1312.5
2016-Jun-18 19:32N 34°55' E 139°29'2 0.1
2016-Jun-17 08:32N 34°57' E 139°29'1512.9
2016-Jun-17 07:23N 35°07' E 139°43'1012.3
2016-Jun-17 06:33N 35°17' E 139°45'1110.5
2016-Jun-17 05:33N 35°27' E 139°47'1313.1
2016-Jun-17 04:33N 35°34' E 140°01'4 3.5
2016-Jun-17 03:29N 35°36' E 140°05'0 0.0
2016-Jun-17 02:23N 35°36' E 140°05'0 0.0
2016-Jun-17 01:29N 35°36' E 140°05'0 0.0
2016-Jun-17 00:29N 35°36' E 140°05'0 0.1
2016-Jun-16 23:33N 35°36' E 140°05'1 1.2
2016-Jun-16 22:27N 35°35' E 140°03'0 0.0
2016-Jun-16 21:33N 35°35' E 140°03'0 0.0
2016-Jun-16 20:33N 35°35' E 140°03'0 0.0
2016-Jun-16 19:21N 35°35' E 140°03'0 0.1
2016-Jun-16 18:27N 35°35' E 140°03'0 0.0
2016-Jun-16 17:33N 35°35' E 140°03'0 0.0
2016-Jun-16 16:33N 35°35' E 140°03'0 0.0
2016-Jun-16 14:21N 35°35' E 140°03'0 0.0
2016-Jun-16 13:33N 35°35' E 140°03'0 0.0
2016-Jun-16 12:09N 35°35' E 140°03'0 0.1
2016-Jun-16 11:33N 35°35' E 140°03'0 0.0
2016-Jun-16 10:33N 35°35' E 140°03'0 0.1
2016-Jun-16 09:33N 35°35' E 140°03'0 0.0
2016-Jun-16 08:33N 35°35' E 140°03'  
Track history (hours):
 
Tides and Currents Weather Stations Pressure Air Temp Water Temp Dewpoint Dewpoint Depression Visibility Wind Speed Wind Dir Waves Ship Positions

Toyomasa Maru

Last reported at 2016-Jun-26 08:28 UTC. Time now 2016-Jun-27 06:03 UTC.
Position N 34°55' E 139°27'.

Length 101 m; draft 4.4 m.

Type: Tanker. MMSI: 431300401.

Date/timePositionNaut miles runAvg speedWind from/ knotsBaromVisibWave heightAir tempDewpointWater temp
2016-Jun-26 08:28N 34°55' E 139°27'1212.1
2016-Jun-26 07:31N 35°03' E 139°37'1213.0
2016-Jun-26 06:33N 35°13' E 139°46'1212.0
2016-Jun-26 05:34N 35°25' E 139°43'1413.9
2016-Jun-26 04:33N 35°33' E 139°57'7 6.0
2016-Jun-26 03:25N 35°36' E 140°05'0 0.0
2016-Jun-26 02:31N 35°36' E 140°05'0 0.0
2016-Jun-26 01:31N 35°36' E 140°05'0 0.0
2016-Jun-26 00:25N 35°36' E 140°05'0 0.0
2016-Jun-25 23:31N 35°36' E 140°05'0 0.1
2016-Jun-25 22:33N 35°36' E 140°05'7 6.7
2016-Jun-25 21:34N 35°33' E 139°57'0 0.2
2016-Jun-25 20:34N 35°33' E 139°57'0 0.0
2016-Jun-25 19:33N 35°33' E 139°57'0 0.0
2016-Jun-25 18:33N 35°33' E 139°57'0 0.0
2016-Jun-25 17:34N 35°33' E 139°57'0 0.0
2016-Jun-25 16:33N 35°33' E 139°57'0 0.0
2016-Jun-25 15:33N 35°33' E 139°57'0 0.0
2016-Jun-25 14:33N 35°33' E 139°57'0 0.0
2016-Jun-25 13:33N 35°33' E 139°57'0 0.0
2016-Jun-25 12:33N 35°33' E 139°57'0 0.0
2016-Jun-25 11:33N 35°33' E 139°57'0 0.0
2016-Jun-25 10:33N 35°33' E 139°57'0 0.0
2016-Jun-25 09:33N 35°33' E 139°57'0 0.0
2016-Jun-25 08:33N 35°33' E 139°57'0 0.0
2016-Jun-25 07:31N 35°33' E 139°57'0 0.0
2016-Jun-25 06:33N 35°33' E 139°57'0 0.0
2016-Jun-25 05:32N 35°33' E 139°57'0 0.0
2016-Jun-25 04:32N 35°33' E 139°57'1 0.3
2016-Jun-25 02:33N 35°33' E 139°57'1212.4
2016-Jun-25 01:33N 35°24' E 139°46'1111.4
2016-Jun-25 00:33N 35°12' E 139°47'9 0.2
2016-Jun-23 08:29N 35°05' E 139°40'1212.8
2016-Jun-23 07:33N 35°16' E 139°46'16 8.0
2016-Jun-23 05:31N 35°32' E 139°48'0 0.0
2016-Jun-23 04:31N 35°32' E 139°48'0 0.0
2016-Jun-23 03:31N 35°32' E 139°48'0 0.0
2016-Jun-23 02:31N 35°32' E 139°48'0 0.0
2016-Jun-23 01:31N 35°32' E 139°48'1 0.9
2016-Jun-23 00:33N 35°31' E 139°48'2 1.7
2016-Jun-22 23:31N 35°30' E 139°50'3 3.3
2016-Jun-22 22:33N 35°27' E 139°50'1111.1
2016-Jun-22 21:33N 35°17' E 139°46'1211.8
2016-Jun-22 20:33N 35°05' E 139°44'66 2.1
2016-Jun-21 13:20N 34°32' E 138°35'6711.7
2016-Jun-21 07:33N 35°08' E 139°44'1211.7
2016-Jun-21 06:33N 35°20' E 139°42'2412.1
2016-Jun-21 04:33N 35°36' E 140°05'0 0.0
2016-Jun-21 03:34N 35°36' E 140°05'0 0.0
2016-Jun-21 02:16N 35°36' E 140°05'0 0.0
2016-Jun-21 01:34N 35°36' E 140°05'0 0.0
2016-Jun-21 00:34N 35°36' E 140°05'0 0.1
2016-Jun-20 23:33N 35°36' E 140°05'6 5.8
2016-Jun-20 22:33N 35°34' E 139°58'0 0.1
2016-Jun-20 21:33N 35°34' E 139°58'0 0.0
2016-Jun-20 20:33N 35°34' E 139°58'0 0.0
2016-Jun-20 19:33N 35°34' E 139°58'0 0.0
2016-Jun-20 18:33N 35°34' E 139°58'0 0.0
2016-Jun-20 17:33N 35°34' E 139°58'0 0.0
2016-Jun-20 16:33N 35°34' E 139°58'0 0.0
2016-Jun-20 15:33N 35°34' E 139°58'0 0.0
2016-Jun-20 14:33N 35°34' E 139°58'0 0.0
2016-Jun-20 13:33N 35°34' E 139°58'0 0.0
2016-Jun-20 12:33N 35°34' E 139°58'0 0.1
2016-Jun-20 11:33N 35°34' E 139°58'6 5.5
2016-Jun-20 10:31N 35°33' E 140°05'0 0.0
2016-Jun-20 09:31N 35°33' E 140°05'0 0.0
2016-Jun-20 08:25N 35°33' E 140°05'0 0.0
2016-Jun-20 07:31N 35°33' E 140°05'0 0.0
2016-Jun-20 06:25N 35°33' E 140°05'0 0.0
2016-Jun-20 05:31N 35°33' E 140°05'0 0.3
2016-Jun-20 04:33N 35°33' E 140°05'3 2.6
2016-Jun-20 03:31N 35°34' E 140°02'0 0.0
2016-Jun-20 02:28N 35°34' E 140°02'0 0.0
2016-Jun-20 01:31N 35°34' E 140°02'0 0.0
2016-Jun-20 00:31N 35°34' E 140°02'0 0.0
2016-Jun-19 23:31N 35°34' E 140°02'0 0.0
2016-Jun-19 22:28N 35°34' E 140°02'0 0.0
2016-Jun-19 21:25N 35°34' E 140°02'0 0.0
2016-Jun-19 20:28N 35°34' E 140°02'0 0.0
2016-Jun-19 19:31N 35°34' E 140°02'0 0.0
2016-Jun-19 18:31N 35°34' E 140°02'0 0.1
2016-Jun-19 17:31N 35°34' E 140°01'0 0.0
2016-Jun-19 16:31N 35°34' E 140°01'0 0.0
2016-Jun-19 15:31N 35°34' E 140°01'0 0.0
2016-Jun-19 14:31N 35°34' E 140°01'0 0.0
2016-Jun-19 13:31N 35°34' E 140°01'0 0.0
2016-Jun-19 12:31N 35°34' E 140°01'0 0.0
2016-Jun-19 11:31N 35°34' E 140°01'0 0.1
2016-Jun-19 10:33N 35°34' E 140°01'3 3.0
2016-Jun-19 09:23N 35°36' E 140°05'0 0.0
2016-Jun-19 08:23N 35°36' E 140°05'0 0.0
2016-Jun-19 07:29N 35°36' E 140°05'0 0.0
2016-Jun-19 06:29N 35°36' E 140°05'0 0.0
2016-Jun-19 05:29N 35°36' E 140°05'0 0.0
2016-Jun-19 04:29N 35°36' E 140°05'1 1.3
2016-Jun-19 03:33N 35°35' E 140°03'0 0.2
2016-Jun-19 02:21N 35°35' E 140°03'0 0.0
2016-Jun-19 01:15N 35°35' E 140°03'0 0.1
2016-Jun-19 00:30N 35°35' E 140°03'4 4.1
2016-Jun-18 23:33N 35°34' E 139°59'1312.7
2016-Jun-18 22:33N 35°25' E 139°47'1110.9
2016-Jun-18 21:33N 35°14' E 139°47'1212.5
2016-Jun-18 20:33N 35°02' E 139°42'1312.5
2016-Jun-18 19:32N 34°55' E 139°29'2 0.1
2016-Jun-17 08:32N 34°57' E 139°29'1512.9
2016-Jun-17 07:23N 35°07' E 139°43'1012.3
2016-Jun-17 06:33N 35°17' E 139°45'1110.5
2016-Jun-17 05:33N 35°27' E 139°47'1313.1
2016-Jun-17 04:33N 35°34' E 140°01'4 3.5
2016-Jun-17 03:29N 35°36' E 140°05'0 0.0
2016-Jun-17 02:23N 35°36' E 140°05'0 0.0
2016-Jun-17 01:29N 35°36' E 140°05'0 0.0
2016-Jun-17 00:29N 35°36' E 140°05'0 0.1
2016-Jun-16 23:33N 35°36' E 140°05'1 1.2
2016-Jun-16 22:27N 35°35' E 140°03'0 0.0
2016-Jun-16 21:33N 35°35' E 140°03'0 0.0
2016-Jun-16 20:33N 35°35' E 140°03'0 0.0
2016-Jun-16 19:21N 35°35' E 140°03'0 0.1
2016-Jun-16 18:27N 35°35' E 140°03'0 0.0
2016-Jun-16 17:33N 35°35' E 140°03'0 0.0
2016-Jun-16 16:33N 35°35' E 140°03'0 0.0
2016-Jun-16 14:21N 35°35' E 140°03'0 0.0
2016-Jun-16 13:33N 35°35' E 140°03'0 0.0
2016-Jun-16 12:09N 35°35' E 140°03'0 0.1
2016-Jun-16 11:33N 35°35' E 140°03'0 0.0
2016-Jun-16 10:33N 35°35' E 140°03'0 0.1
2016-Jun-16 09:33N 35°35' E 140°03'0 0.0
2016-Jun-16 08:33N 35°35' E 140°03'  

Dump ship's entire track history